Latest Weather Observations for Melbourne Airport

IDV60901

Issued at 11:31 am EST Tuesday 21 April 2015 (issued every 10 minutes, with the page automatically refreshed every 10 minutes)

About weather observations | Map of Melbourne area stations | Latest observations for Melbourne area | Other Formats
Station Details ID: 086282 Name: MELBOURNE AIRPORT Lat: -37.67 Lon: 144.83 Height: 113.4 m
Data from the previous 72 hours. | See also: Recent months at Melbourne Airport
Date/Time
EST
Tmp

°C
App
Tmp
°C
Dew
Point
°C
Rel
Hum
%
Delta-T

°C
Wind Press
QNH
hPa
Press
MSL
hPa
Rain
since
9 am
mm
Dir
 
Spd
km/h
Gust
km/h
Spd
kts
Gust
kts
21/11:00am 15.4 9.7 6.8 56 4.2 S 26 39 14 21 1032.1 1032.0 0.0
21/10:30am 13.4 9.0 6.5 63 3.3 S 19 26 10 14 1032.5 1032.4 0.0
21/09:30am 11.1 7.8 6.2 72 2.3 SW 13 15 7 8 1033.1 1033.0 0.0
21/09:00am 10.5 7.6 6.7 77 1.8 SSW 11 13 6 7 1033.3 1033.3 0.0
21/08:00am 8.2 6.0 6.2 87 0.9 SW 7 9 4 5 1033.3 1033.3 0.0
21/07:30am 7.3 5.0 5.5 88 0.8 SW 7 9 4 5 1033.3 1033.3 0.0
21/07:00am 6.3 3.8 4.7 89 0.7 WSW 7 9 4 5 1033.3 1033.3 0.0
21/06:30am 6.3 3.4 4.7 89 0.7 WSW 9 9 5 5 1033.1 1033.0 0.0
21/05:30am 5.5 2.5 4.1 91 0.6 W 9 11 5 6 1032.9 1032.8 0.0
21/05:00am 5.5 2.4 3.8 89 0.7 W 9 11 5 6 1032.6 1032.5 0.0
21/04:30am 5.3 1.8 3.6 89 0.7 W 11 13 6 7 1032.7 1032.6 0.0
21/04:00am 6.6 3.7 4.5 86 0.9 W 9 11 5 6 1032.8 1032.7 0.0
21/03:30am 5.4 1.9 3.5 87 0.8 W 11 11 6 6 1032.9 1032.8 0.0
21/03:00am 5.6 3.0 3.2 84 1.0 NW 6 7 3 4 1033.3 1033.3 0.0
21/02:30am 5.7 3.2 3.5 86 0.9 SW 6 9 3 5 1033.6 1033.6 0.0
21/02:00am 5.5 2.0 3.6 87 0.8 WSW 11 13 6 7 1033.9 1033.9 0.0
21/01:00am 5.8 2.6 2.9 82 1.2 S 9 13 5 7 1034.3 1034.3 0.0
21/12:30am 8.1 4.6 3.7 74 1.9 SSE 11 13 6 7 1034.5 1034.5 0.0
 
Date/Time
EST
Tmp

°C
App
Tmp
°C
Dew
Point
°C
Rel
Hum
%
Delta-T

°C
Wind Press
QNH
hPa
Press
MSL
hPa
Rain
since
9 am
mm
Dir
 
Spd
km/h
Gust
km/h
Spd
kts
Gust
kts
20/10:30pm 9.4 5.3 4.4 71 2.2 SE 15 17 8 9 1035.2 1035.2 0.0
20/10:00pm 9.4 5.3 4.1 69 2.3 SE 15 19 8 10 1035.4 1035.4 0.0
20/09:30pm 9.9 5.0 4.2 67 2.5 SE 19 26 10 14 1035.2 1035.2 0.0
20/09:00pm 10.4 6.3 4.1 65 2.8 SE 15 19 8 10 1035.2 1035.2 0.0
20/08:30pm 10.6 6.1 4.0 63 2.9 SE 17 22 9 12 1035.2 1035.2 0.0
20/08:00pm 10.9 5.8 3.9 62 3.1 SE 20 26 11 14 1035.0 1035.0 0.0
20/07:30pm 10.8 5.6 3.7 61 3.2 SSE 20 26 11 14 1034.9 1034.9 0.0
20/06:30pm 11.5 6.3 3.3 57 3.6 S 20 32 11 17 1034.6 1034.6 0.0
20/05:30pm 12.6 4.9 2.5 50 4.4 S 32 41 17 22 1034.3 1034.3 0.0
20/05:00pm 13.4 5.5 0.8 42 5.3 SSE 32 44 17 24 1034.1 1034.1 0.0
20/04:30pm 13.5 5.6 1.0 42 5.4 S 32 43 17 23 1034.0 1034.0 0.0
20/04:00pm 13.6 5.8 1.8 44 5.1 S 32 41 17 22 1034.1 1034.1 0.0
20/03:30pm 13.7 5.9 2.8 47 4.9 SSE 33 41 18 22 1034.2 1034.2 0.0
20/03:00pm 14.5 7.0 3.4 47 5.0 S 32 41 17 22 1034.1 1034.1 0.0
20/02:30pm 15.4 8.3 3.5 45 5.5 SSE 30 39 16 21 1034.1 1034.1 0.0
20/02:00pm 14.0 6.4 2.7 46 5.0 S 32 41 17 22 1034.3 1034.3 0.0
20/01:30pm 14.7 7.1 3.1 45 5.3 SSE 32 41 17 22 1034.6 1034.6 0.0
20/01:00pm 15.3 7.0 2.2 41 5.8 S 35 46 19 25 1034.5 1034.5 0.0
20/12:30pm 14.4 6.8 3.0 46 5.1 SSE 32 41 17 22 1035.0 1035.0 0.0
20/12:00pm 14.1 6.2 2.5 45 5.1 SSE 33 46 18 25 1035.5 1035.5 0.0
20/11:30am 14.0 6.5 3.3 48 4.8 SSE 32 41 17 22 1036.3 1036.2 0.0
20/11:00am 13.0 6.3 3.6 53 4.2 S 28 39 15 21 1036.5 1036.4 0.0
20/10:30am 12.2 5.1 3.6 55 3.9 SSE 30 37 16 20 1036.8 1036.7 0.0
20/10:00am 12.1 5.5 4.3 59 3.5 SSE 28 33 15 18 1036.9 1036.8 0.0
20/09:30am 11.5 7.8 4.4 61 3.2 SSE 13 20 7 11 1036.9 1036.8 0.0
20/09:00am 10.3 7.4 4.7 68 2.5 SSW 9 11 5 6 1036.9 1036.8 1.0
20/08:30am 8.5 6.1 5.4 81 1.4 WSW 7 9 4 5 1037.1 1037.0 1.0
20/08:00am 7.3 4.5 5.0 85 1.0 WNW 9 13 5 7 1037.0 1036.9 1.0
20/07:30am 6.0 3.5 3.9 86 0.9 WSW 6 7 3 4 1036.5 1036.4 1.0
20/07:00am 5.3 1.4 3.6 89 0.7 W 13 13 7 7 1036.3 1036.2 1.0
20/06:30am 5.5 1.7 3.8 89 0.7 W 13 17 7 9 1036.1 1036.0 1.0
20/06:00am 5.6 1.4 3.7 87 0.8 W 15 15 8 8 1035.8 1035.7 1.0
20/05:30am 5.6 2.0 2.9 83 1.1 W 11 13 6 7 1035.5 1035.5 1.0
20/05:00am 5.8 3.0 2.9 82 1.2 WSW 7 11 4 6 1035.2 1035.2 1.0
20/04:30am 6.2 3.8 2.3 76 1.6 SSW 4 9 2 5 1035.0 1035.0 1.0
20/04:00am 7.9 4.2 2.6 69 2.2 S 11 13 6 7 1034.7 1034.7 1.0
20/03:30am 7.9 4.0 3.2 72 2.0 SSE 13 15 7 8 1034.5 1034.5 1.0
20/03:00am 8.4 4.2 4.0 74 1.9 SSE 15 17 8 9 1034.6 1034.6 1.0
20/02:30am 8.6 4.9 4.2 74 1.9 SSE 13 17 7 9 1034.7 1034.7 1.0
20/02:00am 9.9 4.3 3.7 65 2.7 S 22 30 12 16 1034.7 1034.7 1.0
20/01:30am 9.6 5.8 3.9 67 2.5 SSW 13 17 7 9 1034.6 1034.6 1.0
20/01:00am 8.6 4.6 2.6 66 2.5 SW 13 17 7 9 1034.6 1034.6 1.0
20/12:30am 10.0 3.8 1.9 57 3.4 SSE 24 30 13 16 1034.8 1034.8 1.0
20/12:00am 9.5 3.6 1.5 57 3.3 SSE 22 37 12 20 1034.8 1034.8 1.0
 
Date/Time
EST
Tmp

°C
App
Tmp
°C
Dew
Point
°C
Rel
Hum
%
Delta-T

°C
Wind Press
QNH
hPa
Press
MSL
hPa
Rain
since
9 am
mm
Dir
 
Spd
km/h
Gust
km/h
Spd
kts
Gust
kts
19/11:30pm 10.1 2.8 2.6 59 3.2 SSE 30 48 16 26 1034.8 1034.8 1.0
19/11:24pm 10.6 3.6 1.8 54 3.7 SSE 28 48 15 26 1034.8 1034.8 1.0
19/11:00pm 10.2 4.1 0.6 51 3.9 S 22 30 12 16 1034.8 1034.8 1.0
19/10:30pm 10.0 3.9 0.3 51 4.0 SSE 22 32 12 17 1034.8 1034.8 1.0
19/10:00pm 10.5 4.1 0.7 50 4.0 S 24 35 13 19 1034.7 1034.7 1.0
19/09:30pm 10.2 4.7 0.3 50 4.0 S 19 28 10 15 1034.4 1034.4 1.0
19/09:00pm 9.5 3.8 -1.1 47 4.1 S 19 24 10 13 1034.2 1034.2 1.0
19/08:30pm 9.9 3.7 -0.1 50 4.0 S 22 28 12 15 1033.8 1033.8 1.0
19/08:00pm 8.8 5.1 4.5 74 1.9 SSW 13 17 7 9 1033.5 1033.5 1.0
19/07:30pm 9.2 3.3 3.9 69 2.3 SSW 24 35 13 19 1033.3 1033.3 1.0
19/07:00pm 9.9 5.0 4.2 67 2.5 S 19 24 10 13 1032.8 1032.7 1.0
19/06:30pm 9.7 5.9 3.7 66 2.6 SSW 13 22 7 12 1032.3 1032.2 0.8
19/06:00pm 10.0 4.8 3.3 63 2.9 SSW 20 28 11 15 1031.9 1031.8 0.8
19/05:30pm 9.6 6.1 5.4 75 1.9 S 13 17 7 9 1031.6 1031.5 0.6
19/05:02pm 11.3 4.5 3.3 58 3.5 S 28 46 15 25 1031.2 1031.1 0.4
19/05:00pm 11.6 6.1 4.0 59 3.4 S 22 39 12 21 1031.2 1031.1 0.4
19/04:30pm 10.6 4.2 5.3 70 2.4 SSE 28 41 15 22 1030.8 1030.7 0.4
19/04:14pm 12.8 5.9 2.5 49 4.5 S 28 46 15 25 1030.6 1030.5 0.4
19/04:00pm 11.7 5.9 4.6 62 3.2 SSW 24 33 13 18 1030.5 1030.4 0.4
19/03:30pm 11.2 4.5 3.5 59 3.4 S 28 39 15 21 1030.3 1030.2 0.4
19/03:00pm 12.2 2.1 3.9 57 3.7 SSE 46 57 25 31 1030.2 1030.1 0.4
19/02:30pm 11.3 3.6 5.4 67 2.7 SSE 35 52 19 28 1029.4 1029.3 0.4
19/02:00pm 13.3 5.0 2.0 46 4.9 S 35 48 19 26 1029.1 1029.0 0.4
19/01:30pm 13.0 4.4 2.8 50 4.5 S 37 50 20 27 1028.8 1028.7 0.4
19/01:14pm 13.4 6.5 2.8 48 4.7 S 28 46 15 25 1028.6 1028.5 0.4
19/01:00pm 11.9 5.6 3.8 57 3.6 SSW 26 33 14 18 1028.7 1028.6 0.4
19/12:30pm 11.3 2.7 6.4 72 2.3 S 41 57 22 31 1028.4 1028.3 0.4
19/12:20pm 13.0 6.5 4.7 57 3.8 S 28 50 15 27 1028.2 1028.1 0.2
19/12:00pm 12.6 5.0 3.1 52 4.2 S 32 41 17 22 1028.2 1028.1 0.2
19/11:30am 12.4 5.5 4.7 59 3.5 SSW 30 41 16 22 1028.0 1027.9 0.2
19/11:00am 12.0 5.0 5.8 66 2.9 SW 32 41 17 22 1028.0 1027.9 0.0
19/10:30am 11.3 4.6 5.4 67 2.7 SW 30 37 16 20 1027.7 1027.6 0.0
19/10:00am 11.0 4.7 5.8 70 2.4 SW 28 39 15 21 1027.3 1027.2 0.0
19/09:30am 9.8 4.2 7.0 83 1.3 SW 26 35 14 19 1027.4 1027.3 0.0
19/09:00am 8.6 2.8 6.4 86 1.0 WSW 26 32 14 17 1026.6 1026.6 4.2
19/08:30am 8.1 3.5 6.4 89 0.8 SSW 20 28 11 15 1026.1 1026.1 4.2
19/08:27am 8.2 3.1 6.2 87 0.9 SSW 22 30 12 16 1026.1 1026.1 4.2
19/08:00am 8.6 2.0 6.2 85 1.1 SW 30 39 16 21 1025.3 1025.2 3.4
19/07:30am 7.9 3.7 5.7 86 1.0 SW 17 24 9 13 1024.8 1024.7 3.2
19/07:00am 7.8 3.2 6.3 90 0.7 SW 20 32 11 17 1024.0 1023.9 3.2
19/06:30am 8.2 2.2 5.5 83 1.2 WSW 26 37 14 20 1023.4 1023.3 3.0
19/06:00am 7.9 2.7 5.4 84 1.1 WSW 22 30 12 16 1022.6 1022.5 3.0
19/05:30am 8.0 2.4 5.6 85 1.1 W 24 32 13 17 1022.0 1021.9 3.0
19/05:00am 7.9 3.0 5.2 83 1.2 W 20 28 11 15 1021.5 1021.4 3.0
19/04:30am 8.2 3.0 5.3 82 1.3 WSW 22 30 12 16 1020.9 1020.8 3.0
19/04:00am 8.1 3.3 5.7 85 1.1 W 20 28 11 15 1020.5 1020.4 3.0
19/03:30am 8.2 3.1 6.0 86 1.0 W 22 28 12 15 1020.2 1020.1 3.0
19/03:00am 8.6 4.1 6.2 85 1.1 W 19 26 10 14 1020.1 1020.0 3.0
19/02:30am 9.0 4.4 6.6 85 1.1 WSW 20 26 11 14 1019.8 1019.7 3.0
19/02:00am 9.0 4.1 6.9 87 1.0 WSW 22 26 12 14 1019.6 1019.5 3.0
19/01:30am 9.3 5.0 7.2 87 1.0 WSW 19 26 10 14 1019.4 1019.3 3.0
19/01:00am 9.7 6.0 7.8 88 0.9 WSW 17 26 9 14 1019.2 1019.1 3.0
19/12:30am 10.1 6.5 8.3 88 0.9 W 17 20 9 11 1018.8 1018.6 3.0
19/12:00am 10.4 6.2 8.4 87 1.0 W 20 28 11 15 1018.6 1018.4 3.0
 
Date/Time
EST
Tmp

°C
App
Tmp
°C
Dew
Point
°C
Rel
Hum
%
Delta-T

°C
Wind Press
QNH
hPa
Press
MSL
hPa
Rain
since
9 am
mm
Dir
 
Spd
km/h
Gust
km/h
Spd
kts
Gust
kts
18/11:30pm 10.3 7.5 8.5 89 0.9 W 13 19 7 10 1018.3 1018.1 3.0
18/11:00pm 10.1 8.2 9.1 93 0.5 WNW 9 13 5 7 1018.7 1018.5 3.0
18/10:30pm 10.1 7.8 8.9 92 0.6 WNW 11 15 6 8 1018.5 1018.3 2.8
18/10:00pm 10.2 8.3 9.2 93 0.5 NNW 9 13 5 7 1018.1 1017.9 1.8
18/09:30pm 10.1 7.8 9.1 93 0.5 W 11 15 6 8 1017.6 1017.5 1.6
18/09:00pm 10.3 7.0 9.5 95 0.4 WSW 17 22 9 12 1017.6 1017.5 0.8
18/08:30pm 10.4 4.9 9.2 92 0.6 SW 28 33 15 18 1017.2 1017.1 0.6
18/08:13pm 10.9 7.1 9.9 93 0.5 WSW 20 30 11 16 1016.8 1016.7 0.6
18/08:00pm 11.0 6.4 9.6 91 0.7 WSW 24 32 13 17 1016.7 1016.6 0.4
18/07:30pm 11.5 5.3 9.9 90 0.8 WSW 33 48 18 26 1016.0 1015.9 0.2
18/07:00pm 14.0 9.2 10.2 78 2.0 SW 26 39 14 21 1014.8 1014.7 0.0
18/06:56pm 14.2 10.1 11.4 83 1.5 SSW 24 32 13 17 1014.7 1014.6 0.0
18/06:30pm 15.7 9.7 10.2 70 2.9 WSW 32 54 17 29 1013.4 1013.3 0.0
18/06:23pm 17.1 13.7 9.0 59 4.2 WNW 17 48 9 26 1013.1 1013.0 0.0
18/06:00pm 18.6 15.3 6.4 45 6.1 NW 13 17 7 9 1012.1 1012.0 0.0
18/05:30pm 18.7 14.1 6.3 44 6.2 WNW 20 28 11 15 1011.5 1011.3 0.0
18/05:00pm 20.2 14.6 5.5 38 7.3 WNW 24 30 13 16 1011.3 1011.1 0.0
18/04:30pm 20.4 14.1 5.8 38 7.3 WNW 28 35 15 19 1011.2 1011.0 0.0
18/04:00pm 21.4 15.4 5.1 34 8.1 WNW 26 37 14 20 1011.1 1010.9 0.0
18/03:30pm 21.3 16.2 4.3 32 8.3 WNW 20 32 11 17 1011.2 1011.0 0.0
18/03:00pm 20.6 16.1 4.4 34 7.9 WNW 17 28 9 15 1011.0 1010.8 0.0
18/02:30pm 19.7 16.0 6.1 41 6.8 NW 15 24 8 13 1011.3 1011.1 0.0
18/02:00pm 19.8 17.7 6.5 42 6.7 W 7 19 4 10 1011.8 1011.7 0.0
18/01:30pm 18.7 17.2 10.4 58 4.5 N 9 17 5 9 1012.1 1012.0 0.0
18/01:00pm 18.0 16.6 11.0 63 3.8 NW 9 13 5 7 1012.6 1012.5 0.0
18/12:30pm 17.0 16.3 11.9 72 2.8 WNW 7 13 4 7 1012.7 1012.6 0.0
18/12:00pm 16.3 14.9 12.1 76 2.3 SW 11 15 6 8 1013.5 1013.4 0.0

Latest Capital City Observations: Canberra | Sydney | Melbourne | Brisbane | Adelaide | Perth | Hobart | Darwin

Other Formats:

Comma delimited format used in spreadsheet applications
http://www.bom.gov.au/fwo/IDV60901/IDV60901.94866.axf

JavaScript Object Notation format (JSON) in row-major order
http://www.bom.gov.au/fwo/IDV60901/IDV60901.94866.json